« Back
NWS Peachtree City, Ga » Text Product » AHN Terminal Aerodrome Forecast


Printer-friendly Version
Current Version              Previous Versions:   1  2  3  4  5  6  7  8  9  

Terminal Aerodrome Forecast

088
FTUS42 KFFC 300207 AAA
TAFAHN
TAF AMD
KAHN 300207Z 3002/3024 22006KT P6SM SCT070 BKN100
     FM300300 33004KT P6SM SCT050
     FM300900 VRB02KT P6SM SCT050
     FM301400 24005KT P6SM SCT050 PROB30 3019/3023 VRB10G18KT 3SM
      TSRA BKN025CB=

USA.gov is the U.S. government's official web portal to all federal, state and local government web resources and services.